sensor_id;sensor_type;location;lat;lon;timestamp;P1;durP1;ratioP1;P2;durP2;ratioP2
50689;SDS011;71367;48.298;11.238;2023-07-20T00:08:06;5.32;;;2.08;;
50689;SDS011;71367;48.298;11.238;2023-07-20T00:23:08;6.20;;;2.17;;
50689;SDS011;71367;48.298;11.238;2023-07-20T00:38:11;4.78;;;2.10;;
50689;SDS011;71367;48.298;11.238;2023-07-20T00:53:14;6.43;;;2.25;;
50689;SDS011;71367;48.298;11.238;2023-07-20T01:08:17;4.28;;;2.08;;
50689;SDS011;71367;48.298;11.238;2023-07-20T01:39:01;4.97;;;2.35;;
50689;SDS011;71367;48.298;11.238;2023-07-20T01:54:04;4.85;;;1.90;;
50689;SDS011;71367;48.298;11.238;2023-07-20T02:09:07;4.82;;;1.98;;
50689;SDS011;71367;48.298;11.238;2023-07-20T02:24:11;4.40;;;1.60;;
50689;SDS011;71367;48.298;11.238;2023-07-20T02:39:14;3.83;;;1.70;;
50689;SDS011;71367;48.298;11.238;2023-07-20T02:54:16;5.57;;;2.20;;
50689;SDS011;71367;48.298;11.238;2023-07-20T03:09:19;8.40;;;1.95;;
50689;SDS011;71367;48.298;11.238;2023-07-20T03:24:21;5.15;;;1.70;;
50689;SDS011;71367;48.298;11.238;2023-07-20T03:39:24;4.30;;;1.98;;
50689;SDS011;71367;48.298;11.238;2023-07-20T03:54:26;3.72;;;1.75;;
50689;SDS011;71367;48.298;11.238;2023-07-20T04:09:28;5.45;;;2.15;;
50689;SDS011;71367;48.298;11.238;2023-07-20T04:24:30;4.72;;;1.80;;
50689;SDS011;71367;48.298;11.238;2023-07-20T04:39:34;4.90;;;2.17;;
50689;SDS011;71367;48.298;11.238;2023-07-20T04:54:41;8.35;;;2.20;;
50689;SDS011;71367;48.298;11.238;2023-07-20T05:09:46;5.53;;;2.00;;
50689;SDS011;71367;48.298;11.238;2023-07-20T05:24:49;7.07;;;2.70;;
50689;SDS011;71367;48.298;11.238;2023-07-20T05:39:51;6.32;;;2.40;;
50689;SDS011;71367;48.298;11.238;2023-07-20T05:54:54;5.93;;;2.47;;
50689;SDS011;71367;48.298;11.238;2023-07-20T06:09:57;7.78;;;2.78;;
50689;SDS011;71367;48.298;11.238;2023-07-20T06:24:59;7.28;;;2.05;;
50689;SDS011;71367;48.298;11.238;2023-07-20T06:40:01;5.25;;;2.35;;
50689;SDS011;71367;48.298;11.238;2023-07-20T06:55:05;4.10;;;2.22;;
50689;SDS011;71367;48.298;11.238;2023-07-20T07:10:08;5.93;;;2.50;;
50689;SDS011;71367;48.298;11.238;2023-07-20T07:25:11;3.25;;;1.90;;
50689;SDS011;71367;48.298;11.238;2023-07-20T07:40:13;4.50;;;1.92;;
50689;SDS011;71367;48.298;11.238;2023-07-20T07:55:15;3.70;;;1.73;;
50689;SDS011;71367;48.298;11.238;2023-07-20T08:10:18;5.90;;;2.00;;
50689;SDS011;71367;48.298;11.238;2023-07-20T08:25:21;3.80;;;1.80;;
50689;SDS011;71367;48.298;11.238;2023-07-20T08:40:23;5.35;;;1.77;;
50689;SDS011;71367;48.298;11.238;2023-07-20T08:55:26;2.85;;;1.75;;
50689;SDS011;71367;48.298;11.238;2023-07-20T09:10:29;3.63;;;1.98;;
50689;SDS011;71367;48.298;11.238;2023-07-20T09:25:31;4.43;;;1.88;;
50689;SDS011;71367;48.298;11.238;2023-07-20T09:40:38;3.38;;;1.80;;
50689;SDS011;71367;48.298;11.238;2023-07-20T09:55:41;3.60;;;1.90;;
50689;SDS011;71367;48.298;11.238;2023-07-20T10:10:45;7.13;;;1.65;;
50689;SDS011;71367;48.298;11.238;2023-07-20T10:25:49;5.65;;;1.80;;
50689;SDS011;71367;48.298;11.238;2023-07-20T10:40:55;3.60;;;1.80;;
50689;SDS011;71367;48.298;11.238;2023-07-20T10:56:06;4.90;;;1.80;;
50689;SDS011;71367;48.298;11.238;2023-07-20T11:11:22;4.13;;;2.40;;
50689;SDS011;71367;48.298;11.238;2023-07-20T11:26:25;4.78;;;1.80;;
50689;SDS011;71367;48.298;11.238;2023-07-20T11:41:28;3.60;;;1.80;;
50689;SDS011;71367;48.298;11.238;2023-07-20T11:56:30;3.20;;;1.70;;
50689;SDS011;71367;48.298;11.238;2023-07-20T12:11:36;5.10;;;2.00;;
50689;SDS011;71367;48.298;11.238;2023-07-20T12:26:39;3.30;;;1.80;;
50689;SDS011;71367;48.298;11.238;2023-07-20T12:41:42;5.77;;;2.10;;
50689;SDS011;71367;48.298;11.238;2023-07-20T12:56:44;7.30;;;2.23;;
50689;SDS011;71367;48.298;11.238;2023-07-20T13:11:47;6.37;;;1.80;;
50689;SDS011;71367;48.298;11.238;2023-07-20T13:26:49;3.90;;;2.07;;
50689;SDS011;71367;48.298;11.238;2023-07-20T13:41:52;4.80;;;2.00;;
50689;SDS011;71367;48.298;11.238;2023-07-20T13:56:54;4.43;;;1.60;;
50689;SDS011;71367;48.298;11.238;2023-07-20T14:11:57;4.57;;;1.60;;
50689;SDS011;71367;48.298;11.238;2023-07-20T14:26:59;3.83;;;1.87;;
50689;SDS011;71367;48.298;11.238;2023-07-20T14:42:01;2.93;;;1.57;;
50689;SDS011;71367;48.298;11.238;2023-07-20T14:57:04;5.73;;;2.00;;
50689;SDS011;71367;48.298;11.238;2023-07-20T15:12:08;5.07;;;2.03;;
50689;SDS011;71367;48.298;11.238;2023-07-20T15:27:11;3.70;;;1.60;;
50689;SDS011;71367;48.298;11.238;2023-07-20T15:42:13;8.37;;;1.90;;
50689;SDS011;71367;48.298;11.238;2023-07-20T15:57:15;3.93;;;1.77;;
50689;SDS011;71367;48.298;11.238;2023-07-20T16:12:18;7.87;;;1.97;;
50689;SDS011;71367;48.298;11.238;2023-07-20T16:27:20;3.47;;;2.00;;
50689;SDS011;71367;48.298;11.238;2023-07-20T16:42:23;4.67;;;1.90;;
50689;SDS011;71367;48.298;11.238;2023-07-20T16:57:25;4.13;;;1.63;;
50689;SDS011;71367;48.298;11.238;2023-07-20T17:12:28;3.50;;;1.97;;
50689;SDS011;71367;48.298;11.238;2023-07-20T17:27:30;3.43;;;1.83;;
50689;SDS011;71367;48.298;11.238;2023-07-20T17:42:32;4.33;;;2.03;;
50689;SDS011;71367;48.298;11.238;2023-07-20T17:57:53;4.47;;;2.20;;
50689;SDS011;71367;48.298;11.238;2023-07-20T18:12:55;4.67;;;1.93;;
50689;SDS011;71367;48.298;11.238;2023-07-20T18:27:57;4.80;;;2.13;;
50689;SDS011;71367;48.298;11.238;2023-07-20T18:43:00;8.65;;;2.75;;
50689;SDS011;71367;48.298;11.238;2023-07-20T18:58:03;10.05;;;2.40;;
50689;SDS011;71367;48.298;11.238;2023-07-20T19:13:05;9.82;;;2.58;;
50689;SDS011;71367;48.298;11.238;2023-07-20T19:28:08;6.95;;;2.63;;
50689;SDS011;71367;48.298;11.238;2023-07-20T19:43:10;4.50;;;2.10;;
50689;SDS011;71367;48.298;11.238;2023-07-20T19:58:12;6.60;;;2.20;;
50689;SDS011;71367;48.298;11.238;2023-07-20T20:13:15;4.25;;;2.30;;
50689;SDS011;71367;48.298;11.238;2023-07-20T20:28:17;5.43;;;2.38;;
50689;SDS011;71367;48.298;11.238;2023-07-20T20:43:20;5.78;;;2.30;;
50689;SDS011;71367;48.298;11.238;2023-07-20T20:58:23;5.90;;;2.70;;
50689;SDS011;71367;48.298;11.238;2023-07-20T21:13:26;4.22;;;2.42;;
50689;SDS011;71367;48.298;11.238;2023-07-20T21:28:28;4.75;;;2.40;;
50689;SDS011;71367;48.298;11.238;2023-07-20T21:43:30;5.00;;;3.08;;
50689;SDS011;71367;48.298;11.238;2023-07-20T21:58:33;6.25;;;3.03;;
50689;SDS011;71367;48.298;11.238;2023-07-20T22:13:54;6.25;;;2.63;;
50689;SDS011;71367;48.298;11.238;2023-07-20T22:29:15;6.80;;;2.45;;
50689;SDS011;71367;48.298;11.238;2023-07-20T22:44:18;6.60;;;3.30;;
50689;SDS011;71367;48.298;11.238;2023-07-20T22:59:20;5.97;;;3.03;;
50689;SDS011;71367;48.298;11.238;2023-07-20T23:14:22;8.80;;;3.70;;
50689;SDS011;71367;48.298;11.238;2023-07-20T23:29:25;12.73;;;4.30;;
50689;SDS011;71367;48.298;11.238;2023-07-20T23:44:27;10.75;;;3.58;;
50689;SDS011;71367;48.298;11.238;2023-07-20T23:59:31;7.13;;;4.00;;
